sensor_id;sensor_type;location;lat;lon;timestamp;P1;durP1;ratioP1;P2;durP2;ratioP2
74528;SDS011;63009;52.584;5.932;2023-05-10T00:00:20;19.70;;;9.52;;
74528;SDS011;63009;52.584;5.932;2023-05-10T00:02:47;16.33;;;9.45;;
74528;SDS011;63009;52.584;5.932;2023-05-10T00:05:13;17.42;;;9.68;;
74528;SDS011;63009;52.584;5.932;2023-05-10T00:07:38;17.55;;;9.05;;
74528;SDS011;63009;52.584;5.932;2023-05-10T00:10:03;17.80;;;9.83;;
74528;SDS011;63009;52.584;5.932;2023-05-10T00:12:29;14.73;;;7.75;;
74528;SDS011;63009;52.584;5.932;2023-05-10T00:14:54;14.73;;;7.70;;
74528;SDS011;63009;52.584;5.932;2023-05-10T00:17:19;14.77;;;8.33;;
74528;SDS011;63009;52.584;5.932;2023-05-10T00:19:45;14.60;;;8.20;;
74528;SDS011;63009;52.584;5.932;2023-05-10T00:22:10;11.43;;;6.00;;
74528;SDS011;63009;52.584;5.932;2023-05-10T00:24:35;14.43;;;7.40;;
74528;SDS011;63009;52.584;5.932;2023-05-10T00:27:00;13.23;;;6.23;;
74528;SDS011;63009;52.584;5.932;2023-05-10T00:29:26;12.45;;;5.85;;
74528;SDS011;63009;52.584;5.932;2023-05-10T00:31:52;12.35;;;6.25;;
74528;SDS011;63009;52.584;5.932;2023-05-10T00:34:18;10.53;;;4.97;;
74528;SDS011;63009;52.584;5.932;2023-05-10T00:36:43;10.60;;;5.23;;
74528;SDS011;63009;52.584;5.932;2023-05-10T00:39:08;13.27;;;5.80;;
74528;SDS011;63009;52.584;5.932;2023-05-10T00:41:34;12.25;;;5.55;;
74528;SDS011;63009;52.584;5.932;2023-05-10T00:43:59;10.87;;;5.17;;
74528;SDS011;63009;52.584;5.932;2023-05-10T00:46:25;15.30;;;5.78;;
74528;SDS011;63009;52.584;5.932;2023-05-10T00:48:51;12.35;;;6.03;;
74528;SDS011;63009;52.584;5.932;2023-05-10T00:51:17;12.02;;;5.70;;
74528;SDS011;63009;52.584;5.932;2023-05-10T00:53:43;11.00;;;6.30;;
74528;SDS011;63009;52.584;5.932;2023-05-10T00:56:10;12.10;;;6.35;;
74528;SDS011;63009;52.584;5.932;2023-05-10T00:58:35;12.98;;;5.68;;
74528;SDS011;63009;52.584;5.932;2023-05-10T01:01:01;11.73;;;5.97;;
74528;SDS011;63009;52.584;5.932;2023-05-10T01:03:27;12.50;;;5.65;;
74528;SDS011;63009;52.584;5.932;2023-05-10T01:05:52;13.32;;;5.22;;
74528;SDS011;63009;52.584;5.932;2023-05-10T01:08:18;9.73;;;4.22;;
74528;SDS011;63009;52.584;5.932;2023-05-10T01:10:43;8.27;;;3.03;;
74528;SDS011;63009;52.584;5.932;2023-05-10T01:13:09;7.97;;;2.75;;
74528;SDS011;63009;52.584;5.932;2023-05-10T01:15:34;9.05;;;2.88;;
74528;SDS011;63009;52.584;5.932;2023-05-10T01:18:01;7.15;;;2.33;;
74528;SDS011;63009;52.584;5.932;2023-05-10T01:20:27;6.55;;;2.35;;
74528;SDS011;63009;52.584;5.932;2023-05-10T01:23:20;7.78;;;2.50;;
74528;SDS011;63009;52.584;5.932;2023-05-10T01:31:54;8.45;;;3.22;;
74528;SDS011;63009;52.584;5.932;2023-05-10T01:34:26;9.77;;;4.18;;
74528;SDS011;63009;52.584;5.932;2023-05-10T01:36:58;9.30;;;4.07;;
74528;SDS011;63009;52.584;5.932;2023-05-10T01:39:40;10.23;;;4.45;;
74528;SDS011;63009;52.584;5.932;2023-05-10T01:42:14;10.82;;;4.22;;
74528;SDS011;63009;52.584;5.932;2023-05-10T01:44:56;10.07;;;4.70;;
74528;SDS011;63009;52.584;5.932;2023-05-10T01:50:15;10.48;;;5.05;;
74528;SDS011;63009;52.584;5.932;2023-05-10T01:52:46;10.80;;;5.05;;
74528;SDS011;63009;52.584;5.932;2023-05-10T01:55:15;11.15;;;5.25;;
74528;SDS011;63009;52.584;5.932;2023-05-10T01:57:43;11.10;;;5.72;;
74528;SDS011;63009;52.584;5.932;2023-05-10T02:00:11;12.25;;;5.30;;
74528;SDS011;63009;52.584;5.932;2023-05-10T02:02:42;11.10;;;5.22;;
74528;SDS011;63009;52.584;5.932;2023-05-10T02:05:11;12.38;;;5.88;;
74528;SDS011;63009;52.584;5.932;2023-05-10T02:07:39;11.20;;;5.20;;
74528;SDS011;63009;52.584;5.932;2023-05-10T02:10:05;11.63;;;5.25;;
74528;SDS011;63009;52.584;5.932;2023-05-10T02:12:35;9.52;;;4.47;;
74528;SDS011;63009;52.584;5.932;2023-05-10T02:15:03;10.65;;;5.35;;
74528;SDS011;63009;52.584;5.932;2023-05-10T02:17:30;12.05;;;5.35;;
74528;SDS011;63009;52.584;5.932;2023-05-10T02:19:57;12.30;;;6.57;;
74528;SDS011;63009;52.584;5.932;2023-05-10T02:22:25;12.18;;;5.70;;
74528;SDS011;63009;52.584;5.932;2023-05-10T02:24:53;10.93;;;5.55;;
74528;SDS011;63009;52.584;5.932;2023-05-10T02:29:46;11.30;;;5.18;;
74528;SDS011;63009;52.584;5.932;2023-05-10T02:32:14;11.68;;;5.20;;
74528;SDS011;63009;52.584;5.932;2023-05-10T02:34:41;10.90;;;5.05;;
74528;SDS011;63009;52.584;5.932;2023-05-10T02:37:07;11.50;;;5.95;;
74528;SDS011;63009;52.584;5.932;2023-05-10T02:39:33;14.32;;;5.82;;
74528;SDS011;63009;52.584;5.932;2023-05-10T02:41:59;12.05;;;6.18;;
74528;SDS011;63009;52.584;5.932;2023-05-10T02:44:26;14.80;;;6.78;;
74528;SDS011;63009;52.584;5.932;2023-05-10T02:46:55;13.98;;;6.63;;
74528;SDS011;63009;52.584;5.932;2023-05-10T02:49:21;16.50;;;6.95;;
74528;SDS011;63009;52.584;5.932;2023-05-10T02:51:49;16.08;;;7.65;;
74528;SDS011;63009;52.584;5.932;2023-05-10T02:54:20;15.63;;;6.90;;
74528;SDS011;63009;52.584;5.932;2023-05-10T02:56:53;14.43;;;6.78;;
74528;SDS011;63009;52.584;5.932;2023-05-10T02:59:22;13.52;;;6.10;;
74528;SDS011;63009;52.584;5.932;2023-05-10T03:01:47;13.80;;;6.80;;
74528;SDS011;63009;52.584;5.932;2023-05-10T03:04:13;13.82;;;6.07;;
74528;SDS011;63009;52.584;5.932;2023-05-10T03:06:38;12.77;;;6.20;;
74528;SDS011;63009;52.584;5.932;2023-05-10T03:09:04;12.23;;;5.50;;
74528;SDS011;63009;52.584;5.932;2023-05-10T03:11:47;12.60;;;6.28;;
74528;SDS011;63009;52.584;5.932;2023-05-10T03:14:29;11.82;;;5.70;;
74528;SDS011;63009;52.584;5.932;2023-05-10T03:17:04;10.52;;;4.72;;
74528;SDS011;63009;52.584;5.932;2023-05-10T03:19:39;11.68;;;4.90;;
74528;SDS011;63009;52.584;5.932;2023-05-10T03:22:11;12.98;;;5.80;;
74528;SDS011;63009;52.584;5.932;2023-05-10T03:24:44;11.57;;;5.75;;
74528;SDS011;63009;52.584;5.932;2023-05-10T03:27:11;12.38;;;5.60;;
74528;SDS011;63009;52.584;5.932;2023-05-10T03:29:37;12.18;;;5.75;;
74528;SDS011;63009;52.584;5.932;2023-05-10T03:32:04;13.60;;;5.20;;
74528;SDS011;63009;52.584;5.932;2023-05-10T03:34:30;12.73;;;6.15;;
74528;SDS011;63009;52.584;5.932;2023-05-10T03:36:56;13.05;;;5.82;;
74528;SDS011;63009;52.584;5.932;2023-05-10T03:39:21;13.73;;;6.70;;
74528;SDS011;63009;52.584;5.932;2023-05-10T03:41:47;14.10;;;6.25;;
74528;SDS011;63009;52.584;5.932;2023-05-10T03:44:12;12.27;;;5.97;;
74528;SDS011;63009;52.584;5.932;2023-05-10T03:46:37;15.80;;;6.97;;
74528;SDS011;63009;52.584;5.932;2023-05-10T03:49:03;16.47;;;6.47;;
74528;SDS011;63009;52.584;5.932;2023-05-10T03:51:28;15.53;;;6.63;;
74528;SDS011;63009;52.584;5.932;2023-05-10T03:53:54;12.33;;;6.53;;
74528;SDS011;63009;52.584;5.932;2023-05-10T03:56:19;15.38;;;6.65;;
74528;SDS011;63009;52.584;5.932;2023-05-10T03:58:45;12.38;;;5.75;;
74528;SDS011;63009;52.584;5.932;2023-05-10T04:01:11;13.48;;;5.50;;
74528;SDS011;63009;52.584;5.932;2023-05-10T04:03:36;12.20;;;5.25;;
74528;SDS011;63009;52.584;5.932;2023-05-10T04:06:02;12.17;;;5.30;;
74528;SDS011;63009;52.584;5.932;2023-05-10T04:08:27;11.95;;;5.38;;
74528;SDS011;63009;52.584;5.932;2023-05-10T04:10:53;12.13;;;6.22;;
74528;SDS011;63009;52.584;5.932;2023-05-10T04:13:18;12.07;;;5.82;;
74528;SDS011;63009;52.584;5.932;2023-05-10T04:15:43;15.82;;;5.90;;
74528;SDS011;63009;52.584;5.932;2023-05-10T04:18:09;14.25;;;6.28;;
74528;SDS011;63009;52.584;5.932;2023-05-10T04:20:34;13.93;;;6.80;;
74528;SDS011;63009;52.584;5.932;2023-05-10T04:23:00;14.23;;;5.70;;
74528;SDS011;63009;52.584;5.932;2023-05-10T04:25:25;13.00;;;6.13;;
74528;SDS011;63009;52.584;5.932;2023-05-10T04:27:50;11.43;;;5.30;;
74528;SDS011;63009;52.584;5.932;2023-05-10T04:30:16;13.40;;;5.63;;
74528;SDS011;63009;52.584;5.932;2023-05-10T04:32:41;13.50;;;5.32;;
74528;SDS011;63009;52.584;5.932;2023-05-10T04:35:07;12.07;;;4.70;;
74528;SDS011;63009;52.584;5.932;2023-05-10T04:37:32;12.95;;;5.50;;
74528;SDS011;63009;52.584;5.932;2023-05-10T04:39:58;14.18;;;5.57;;
74528;SDS011;63009;52.584;5.932;2023-05-10T04:42:24;14.07;;;5.43;;
74528;SDS011;63009;52.584;5.932;2023-05-10T04:44:50;13.18;;;5.68;;
74528;SDS011;63009;52.584;5.932;2023-05-10T04:47:16;14.77;;;5.50;;
74528;SDS011;63009;52.584;5.932;2023-05-10T04:49:42;14.10;;;5.90;;
74528;SDS011;63009;52.584;5.932;2023-05-10T04:52:07;14.90;;;6.63;;
74528;SDS011;63009;52.584;5.932;2023-05-10T04:54:32;14.43;;;5.83;;
74528;SDS011;63009;52.584;5.932;2023-05-10T04:56:57;15.53;;;7.30;;
74528;SDS011;63009;52.584;5.932;2023-05-10T04:59:23;15.77;;;7.10;;
74528;SDS011;63009;52.584;5.932;2023-05-10T05:01:48;15.30;;;7.70;;
74528;SDS011;63009;52.584;5.932;2023-05-10T05:04:13;15.93;;;6.63;;
74528;SDS011;63009;52.584;5.932;2023-05-10T05:06:39;18.25;;;8.05;;
74528;SDS011;63009;52.584;5.932;2023-05-10T05:09:04;20.57;;;9.30;;
74528;SDS011;63009;52.584;5.932;2023-05-10T05:11:30;19.67;;;9.15;;
74528;SDS011;63009;52.584;5.932;2023-05-10T05:13:55;20.10;;;8.40;;
74528;SDS011;63009;52.584;5.932;2023-05-10T05:16:20;19.38;;;9.02;;
74528;SDS011;63009;52.584;5.932;2023-05-10T05:18:46;24.35;;;10.10;;
74528;SDS011;63009;52.584;5.932;2023-05-10T05:21:18;19.50;;;9.30;;
74528;SDS011;63009;52.584;5.932;2023-05-10T05:23:44;18.25;;;9.52;;
74528;SDS011;63009;52.584;5.932;2023-05-10T05:26:10;17.83;;;9.02;;
74528;SDS011;63009;52.584;5.932;2023-05-10T05:28:36;17.75;;;8.57;;
74528;SDS011;63009;52.584;5.932;2023-05-10T05:31:04;20.20;;;8.80;;
74528;SDS011;63009;52.584;5.932;2023-05-10T05:33:30;20.65;;;10.07;;
74528;SDS011;63009;52.584;5.932;2023-05-10T05:35:56;17.13;;;8.75;;
74528;SDS011;63009;52.584;5.932;2023-05-10T05:38:21;17.88;;;9.15;;
74528;SDS011;63009;52.584;5.932;2023-05-10T05:40:47;17.10;;;7.33;;
74528;SDS011;63009;52.584;5.932;2023-05-10T05:43:12;18.20;;;8.40;;
74528;SDS011;63009;52.584;5.932;2023-05-10T05:45:38;17.80;;;8.10;;
74528;SDS011;63009;52.584;5.932;2023-05-10T05:48:03;18.27;;;8.67;;
74528;SDS011;63009;52.584;5.932;2023-05-10T05:50:29;18.60;;;7.80;;
74528;SDS011;63009;52.584;5.932;2023-05-10T05:52:54;17.13;;;8.60;;
74528;SDS011;63009;52.584;5.932;2023-05-10T05:55:20;16.85;;;8.50;;
74528;SDS011;63009;52.584;5.932;2023-05-10T05:57:45;15.97;;;7.93;;
74528;SDS011;63009;52.584;5.932;2023-05-10T06:00:10;16.03;;;7.90;;
74528;SDS011;63009;52.584;5.932;2023-05-10T06:02:36;19.02;;;9.00;;
74528;SDS011;63009;52.584;5.932;2023-05-10T06:05:01;19.60;;;9.07;;
74528;SDS011;63009;52.584;5.932;2023-05-10T06:07:27;18.40;;;8.57;;
74528;SDS011;63009;52.584;5.932;2023-05-10T06:09:52;19.17;;;8.87;;
74528;SDS011;63009;52.584;5.932;2023-05-10T06:12:17;20.93;;;9.37;;
74528;SDS011;63009;52.584;5.932;2023-05-10T06:14:43;20.30;;;10.10;;
74528;SDS011;63009;52.584;5.932;2023-05-10T06:17:08;17.83;;;8.47;;
74528;SDS011;63009;52.584;5.932;2023-05-10T06:19:33;18.87;;;8.90;;
74528;SDS011;63009;52.584;5.932;2023-05-10T06:21:59;19.67;;;8.48;;
74528;SDS011;63009;52.584;5.932;2023-05-10T06:24:24;16.43;;;7.63;;
74528;SDS011;63009;52.584;5.932;2023-05-10T06:26:49;16.73;;;9.63;;
74528;SDS011;63009;52.584;5.932;2023-05-10T06:29:15;18.08;;;7.32;;
74528;SDS011;63009;52.584;5.932;2023-05-10T06:31:40;20.15;;;8.65;;
74528;SDS011;63009;52.584;5.932;2023-05-10T06:34:06;18.13;;;8.40;;
74528;SDS011;63009;52.584;5.932;2023-05-10T06:36:32;18.10;;;7.57;;
74528;SDS011;63009;52.584;5.932;2023-05-10T06:38:58;14.75;;;7.65;;
74528;SDS011;63009;52.584;5.932;2023-05-10T06:41:23;17.60;;;8.97;;
74528;SDS011;63009;52.584;5.932;2023-05-10T06:43:48;20.90;;;8.70;;
74528;SDS011;63009;52.584;5.932;2023-05-10T06:46:14;16.50;;;7.13;;
74528;SDS011;63009;52.584;5.932;2023-05-10T06:48:39;14.88;;;5.70;;
74528;SDS011;63009;52.584;5.932;2023-05-10T06:51:04;12.30;;;6.00;;
74528;SDS011;63009;52.584;5.932;2023-05-10T06:53:30;15.02;;;6.07;;
74528;SDS011;63009;52.584;5.932;2023-05-10T06:55:55;13.43;;;6.20;;
74528;SDS011;63009;52.584;5.932;2023-05-10T06:58:20;15.63;;;6.40;;
74528;SDS011;63009;52.584;5.932;2023-05-10T07:00:46;13.63;;;5.83;;
74528;SDS011;63009;52.584;5.932;2023-05-10T07:03:12;12.93;;;5.15;;
74528;SDS011;63009;52.584;5.932;2023-05-10T07:05:37;13.00;;;6.27;;
74528;SDS011;63009;52.584;5.932;2023-05-10T07:08:02;13.83;;;5.77;;
74528;SDS011;63009;52.584;5.932;2023-05-10T07:10:28;14.05;;;5.38;;
74528;SDS011;63009;52.584;5.932;2023-05-10T07:12:53;13.47;;;5.20;;
74528;SDS011;63009;52.584;5.932;2023-05-10T07:15:18;14.00;;;5.60;;
74528;SDS011;63009;52.584;5.932;2023-05-10T07:17:44;13.43;;;5.63;;
74528;SDS011;63009;52.584;5.932;2023-05-10T07:20:09;12.13;;;4.40;;
74528;SDS011;63009;52.584;5.932;2023-05-10T07:22:34;12.20;;;4.53;;
74528;SDS011;63009;52.584;5.932;2023-05-10T07:25:00;11.50;;;4.97;;
74528;SDS011;63009;52.584;5.932;2023-05-10T07:27:25;11.27;;;4.30;;
74528;SDS011;63009;52.584;5.932;2023-05-10T07:29:50;11.90;;;4.80;;
74528;SDS011;63009;52.584;5.932;2023-05-10T07:32:16;9.43;;;4.07;;
74528;SDS011;63009;52.584;5.932;2023-05-10T07:34:41;9.87;;;3.40;;
74528;SDS011;63009;52.584;5.932;2023-05-10T07:37:06;10.40;;;4.50;;
74528;SDS011;63009;52.584;5.932;2023-05-10T07:39:32;10.65;;;4.00;;
74528;SDS011;63009;52.584;5.932;2023-05-10T07:41:57;10.23;;;3.97;;
74528;SDS011;63009;52.584;5.932;2023-05-10T07:44:22;10.50;;;4.40;;
74528;SDS011;63009;52.584;5.932;2023-05-10T07:46:48;12.48;;;4.50;;
74528;SDS011;63009;52.584;5.932;2023-05-10T07:49:13;10.75;;;4.40;;
74528;SDS011;63009;52.584;5.932;2023-05-10T07:51:39;9.82;;;4.03;;
74528;SDS011;63009;52.584;5.932;2023-05-10T07:54:04;10.97;;;4.20;;
74528;SDS011;63009;52.584;5.932;2023-05-10T07:56:30;11.02;;;4.28;;
74528;SDS011;63009;52.584;5.932;2023-05-10T07:58:57;9.23;;;3.75;;
74528;SDS011;63009;52.584;5.932;2023-05-10T08:01:25;11.10;;;4.63;;
74528;SDS011;63009;52.584;5.932;2023-05-10T08:03:51;9.50;;;3.83;;
74528;SDS011;63009;52.584;5.932;2023-05-10T08:06:18;10.50;;;3.85;;
74528;SDS011;63009;52.584;5.932;2023-05-10T08:08:48;10.68;;;4.93;;
74528;SDS011;63009;52.584;5.932;2023-05-10T08:11:18;12.23;;;4.78;;
74528;SDS011;63009;52.584;5.932;2023-05-10T08:13:45;12.18;;;4.65;;
74528;SDS011;63009;52.584;5.932;2023-05-10T08:16:11;12.35;;;4.97;;
74528;SDS011;63009;52.584;5.932;2023-05-10T08:18:37;10.77;;;4.25;;
74528;SDS011;63009;52.584;5.932;2023-05-10T08:21:03;12.50;;;5.85;;
74528;SDS011;63009;52.584;5.932;2023-05-10T08:23:29;9.60;;;4.18;;
74528;SDS011;63009;52.584;5.932;2023-05-10T08:25:54;10.60;;;4.67;;
74528;SDS011;63009;52.584;5.932;2023-05-10T08:28:19;11.50;;;4.33;;
74528;SDS011;63009;52.584;5.932;2023-05-10T08:30:44;12.03;;;5.17;;
74528;SDS011;63009;52.584;5.932;2023-05-10T08:33:10;10.55;;;4.65;;
74528;SDS011;63009;52.584;5.932;2023-05-10T08:35:35;11.50;;;4.45;;
74528;SDS011;63009;52.584;5.932;2023-05-10T08:38:01;12.07;;;4.90;;
74528;SDS011;63009;52.584;5.932;2023-05-10T08:40:26;11.13;;;4.97;;
74528;SDS011;63009;52.584;5.932;2023-05-10T08:45:37;12.55;;;5.15;;
74528;SDS011;63009;52.584;5.932;2023-05-10T08:48:06;13.10;;;5.93;;
74528;SDS011;63009;52.584;5.932;2023-05-10T08:50:40;12.98;;;5.78;;
74528;SDS011;63009;52.584;5.932;2023-05-10T08:53:09;14.30;;;6.15;;
74528;SDS011;63009;52.584;5.932;2023-05-10T08:55:36;13.77;;;6.35;;
74528;SDS011;63009;52.584;5.932;2023-05-10T08:58:03;12.88;;;5.65;;
74528;SDS011;63009;52.584;5.932;2023-05-10T09:00:32;10.90;;;4.70;;
74528;SDS011;63009;52.584;5.932;2023-05-10T09:02:58;14.65;;;6.38;;
74528;SDS011;63009;52.584;5.932;2023-05-10T09:05:24;14.13;;;5.35;;
74528;SDS011;63009;52.584;5.932;2023-05-10T09:07:49;13.13;;;5.72;;
74528;SDS011;63009;52.584;5.932;2023-05-10T09:10:15;13.23;;;6.40;;
74528;SDS011;63009;52.584;5.932;2023-05-10T09:12:40;11.63;;;5.65;;
74528;SDS011;63009;52.584;5.932;2023-05-10T09:15:07;13.43;;;5.50;;
74528;SDS011;63009;52.584;5.932;2023-05-10T09:20:00;14.10;;;6.28;;
74528;SDS011;63009;52.584;5.932;2023-05-10T09:22:27;11.55;;;5.53;;
74528;SDS011;63009;52.584;5.932;2023-05-10T09:27:35;13.13;;;5.72;;
74528;SDS011;63009;52.584;5.932;2023-05-10T09:30:01;12.38;;;5.78;;
74528;SDS011;63009;52.584;5.932;2023-05-10T09:32:37;12.43;;;5.75;;
74528;SDS011;63009;52.584;5.932;2023-05-10T09:35:10;13.82;;;6.43;;
74528;SDS011;63009;52.584;5.932;2023-05-10T09:37:40;12.80;;;5.90;;
74528;SDS011;63009;52.584;5.932;2023-05-10T09:40:07;12.25;;;5.63;;
74528;SDS011;63009;52.584;5.932;2023-05-10T09:42:36;13.82;;;6.38;;
74528;SDS011;63009;52.584;5.932;2023-05-10T09:45:04;12.63;;;6.20;;
74528;SDS011;63009;52.584;5.932;2023-05-10T09:47:32;12.93;;;5.93;;
74528;SDS011;63009;52.584;5.932;2023-05-10T09:49:58;14.82;;;6.70;;
74528;SDS011;63009;52.584;5.932;2023-05-10T09:52:28;13.55;;;6.07;;
74528;SDS011;63009;52.584;5.932;2023-05-10T09:55:11;12.40;;;5.93;;
74528;SDS011;63009;52.584;5.932;2023-05-10T09:57:37;12.98;;;6.75;;
74528;SDS011;63009;52.584;5.932;2023-05-10T10:00:02;13.80;;;6.93;;
74528;SDS011;63009;52.584;5.932;2023-05-10T10:02:30;14.73;;;7.40;;
74528;SDS011;63009;52.584;5.932;2023-05-10T10:04:56;13.70;;;7.15;;
74528;SDS011;63009;52.584;5.932;2023-05-10T10:07:23;14.15;;;6.85;;
74528;SDS011;63009;52.584;5.932;2023-05-10T10:12:16;13.40;;;6.47;;
74528;SDS011;63009;52.584;5.932;2023-05-10T10:14:41;14.45;;;7.43;;
74528;SDS011;63009;52.584;5.932;2023-05-10T10:17:07;12.98;;;6.65;;
74528;SDS011;63009;52.584;5.932;2023-05-10T10:19:34;16.50;;;6.22;;
74528;SDS011;63009;52.584;5.932;2023-05-10T10:22:02;13.07;;;6.82;;
74528;SDS011;63009;52.584;5.932;2023-05-10T10:24:27;14.32;;;6.40;;
74528;SDS011;63009;52.584;5.932;2023-05-10T10:26:54;13.23;;;5.97;;
74528;SDS011;63009;52.584;5.932;2023-05-10T10:29:35;12.82;;;6.00;;
74528;SDS011;63009;52.584;5.932;2023-05-10T10:35:32;14.80;;;7.03;;
74528;SDS011;63009;52.584;5.932;2023-05-10T10:37:59;12.55;;;6.13;;
74528;SDS011;63009;52.584;5.932;2023-05-10T10:40:28;15.95;;;7.15;;
74528;SDS011;63009;52.584;5.932;2023-05-10T10:42:55;13.27;;;6.65;;
74528;SDS011;63009;52.584;5.932;2023-05-10T10:45:23;16.38;;;7.38;;
74528;SDS011;63009;52.584;5.932;2023-05-10T10:47:53;14.90;;;6.72;;
74528;SDS011;63009;52.584;5.932;2023-05-10T10:50:44;14.00;;;6.60;;
74528;SDS011;63009;52.584;5.932;2023-05-10T10:53:11;13.23;;;6.78;;
74528;SDS011;63009;52.584;5.932;2023-05-10T10:55:44;16.05;;;7.38;;
74528;SDS011;63009;52.584;5.932;2023-05-10T10:58:12;13.77;;;7.00;;
74528;SDS011;63009;52.584;5.932;2023-05-10T11:01:08;14.82;;;6.72;;
74528;SDS011;63009;52.584;5.932;2023-05-10T11:03:35;14.73;;;6.70;;
74528;SDS011;63009;52.584;5.932;2023-05-10T11:06:00;13.87;;;6.27;;
74528;SDS011;63009;52.584;5.932;2023-05-10T11:18:58;13.63;;;6.50;;
74528;SDS011;63009;52.584;5.932;2023-05-10T11:21:23;16.33;;;8.27;;
74528;SDS011;63009;52.584;5.932;2023-05-10T11:23:50;14.10;;;6.95;;
74528;SDS011;63009;52.584;5.932;2023-05-10T11:26:16;14.45;;;6.72;;
74528;SDS011;63009;52.584;5.932;2023-05-10T11:28:43;15.32;;;7.40;;
74528;SDS011;63009;52.584;5.932;2023-05-10T11:31:09;16.35;;;7.55;;
74528;SDS011;63009;52.584;5.932;2023-05-10T11:36:21;14.85;;;7.57;;
74528;SDS011;63009;52.584;5.932;2023-05-10T11:38:48;18.70;;;6.63;;
74528;SDS011;63009;52.584;5.932;2023-05-10T11:41:14;14.05;;;6.78;;
74528;SDS011;63009;52.584;5.932;2023-05-10T11:43:41;28.77;;;9.60;;
74528;SDS011;63009;52.584;5.932;2023-05-10T11:46:07;20.58;;;8.13;;
74528;SDS011;63009;52.584;5.932;2023-05-10T11:48:35;29.75;;;10.50;;
74528;SDS011;63009;52.584;5.932;2023-05-10T11:51:01;25.75;;;8.32;;
74528;SDS011;63009;52.584;5.932;2023-05-10T11:53:27;16.20;;;7.28;;
74528;SDS011;63009;52.584;5.932;2023-05-10T11:55:54;16.85;;;7.57;;
74528;SDS011;63009;52.584;5.932;2023-05-10T11:58:19;15.70;;;6.70;;
74528;SDS011;63009;52.584;5.932;2023-05-10T12:00:46;13.93;;;6.57;;
74528;SDS011;63009;52.584;5.932;2023-05-10T12:03:12;12.77;;;5.97;;
74528;SDS011;63009;52.584;5.932;2023-05-10T12:05:37;14.37;;;6.80;;
74528;SDS011;63009;52.584;5.932;2023-05-10T12:08:15;14.88;;;6.35;;
74528;SDS011;63009;52.584;5.932;2023-05-10T12:10:44;19.83;;;7.72;;
74528;SDS011;63009;52.584;5.932;2023-05-10T12:13:13;16.37;;;7.80;;
74528;SDS011;63009;52.584;5.932;2023-05-10T12:15:40;17.08;;;7.45;;
74528;SDS011;63009;52.584;5.932;2023-05-10T12:18:07;29.05;;;8.77;;
74528;SDS011;63009;52.584;5.932;2023-05-10T12:20:34;14.25;;;6.07;;
74528;SDS011;63009;52.584;5.932;2023-05-10T12:22:59;11.07;;;5.43;;
74528;SDS011;63009;52.584;5.932;2023-05-10T12:25:30;13.27;;;6.30;;
74528;SDS011;63009;52.584;5.932;2023-05-10T12:27:57;16.58;;;7.32;;
74528;SDS011;63009;52.584;5.932;2023-05-10T12:32:52;14.07;;;7.18;;
74528;SDS011;63009;52.584;5.932;2023-05-10T12:35:18;17.52;;;7.80;;
74528;SDS011;63009;52.584;5.932;2023-05-10T12:37:48;14.35;;;7.47;;
74528;SDS011;63009;52.584;5.932;2023-05-10T12:40:15;15.38;;;7.13;;
74528;SDS011;63009;52.584;5.932;2023-05-10T12:42:40;16.50;;;7.90;;
74528;SDS011;63009;52.584;5.932;2023-05-10T12:45:05;14.37;;;7.73;;
74528;SDS011;63009;52.584;5.932;2023-05-10T12:47:32;14.98;;;7.07;;
74528;SDS011;63009;52.584;5.932;2023-05-10T12:49:57;19.02;;;8.65;;
74528;SDS011;63009;52.584;5.932;2023-05-10T12:52:23;14.40;;;7.57;;
74528;SDS011;63009;52.584;5.932;2023-05-10T12:54:49;14.73;;;6.90;;
74528;SDS011;63009;52.584;5.932;2023-05-10T12:57:14;15.03;;;7.43;;
74528;SDS011;63009;52.584;5.932;2023-05-10T12:59:40;15.10;;;7.83;;
74528;SDS011;63009;52.584;5.932;2023-05-10T13:02:05;16.15;;;8.18;;
74528;SDS011;63009;52.584;5.932;2023-05-10T13:04:31;16.52;;;8.57;;
74528;SDS011;63009;52.584;5.932;2023-05-10T13:06:56;15.87;;;8.07;;
74528;SDS011;63009;52.584;5.932;2023-05-10T13:09:23;16.40;;;8.65;;
74528;SDS011;63009;52.584;5.932;2023-05-10T13:11:50;16.25;;;8.40;;
74528;SDS011;63009;52.584;5.932;2023-05-10T13:14:15;16.75;;;7.38;;
74528;SDS011;63009;52.584;5.932;2023-05-10T13:16:40;14.93;;;7.00;;
74528;SDS011;63009;52.584;5.932;2023-05-10T13:19:06;13.47;;;6.90;;
74528;SDS011;63009;52.584;5.932;2023-05-10T13:21:31;14.05;;;6.95;;
74528;SDS011;63009;52.584;5.932;2023-05-10T13:23:57;14.13;;;6.03;;
74528;SDS011;63009;52.584;5.932;2023-05-10T13:26:22;13.95;;;6.88;;
74528;SDS011;63009;52.584;5.932;2023-05-10T13:28:48;15.13;;;7.50;;
74528;SDS011;63009;52.584;5.932;2023-05-10T13:31:14;14.85;;;6.60;;
74528;SDS011;63009;52.584;5.932;2023-05-10T13:33:39;14.82;;;6.55;;
74528;SDS011;63009;52.584;5.932;2023-05-10T13:36:05;14.07;;;7.10;;
74528;SDS011;63009;52.584;5.932;2023-05-10T13:38:31;14.10;;;6.53;;
74528;SDS011;63009;52.584;5.932;2023-05-10T13:40:56;14.85;;;6.95;;
74528;SDS011;63009;52.584;5.932;2023-05-10T13:43:21;12.37;;;5.87;;
74528;SDS011;63009;52.584;5.932;2023-05-10T13:45:47;12.77;;;6.00;;
74528;SDS011;63009;52.584;5.932;2023-05-10T13:48:12;15.83;;;6.70;;
74528;SDS011;63009;52.584;5.932;2023-05-10T13:50:37;12.47;;;6.20;;
74528;SDS011;63009;52.584;5.932;2023-05-10T13:53:03;14.95;;;6.07;;
74528;SDS011;63009;52.584;5.932;2023-05-10T13:55:28;14.07;;;6.17;;
74528;SDS011;63009;52.584;5.932;2023-05-10T13:57:53;14.30;;;6.47;;
74528;SDS011;63009;52.584;5.932;2023-05-10T14:00:19;14.47;;;6.90;;
74528;SDS011;63009;52.584;5.932;2023-05-10T14:02:44;17.25;;;6.40;;
74528;SDS011;63009;52.584;5.932;2023-05-10T14:05:09;14.23;;;7.13;;
74528;SDS011;63009;52.584;5.932;2023-05-10T14:07:35;14.57;;;6.90;;
74528;SDS011;63009;52.584;5.932;2023-05-10T14:10:00;21.23;;;15.50;;
74528;SDS011;63009;52.584;5.932;2023-05-10T14:12:25;21.40;;;12.50;;
74528;SDS011;63009;52.584;5.932;2023-05-10T14:14:51;14.80;;;8.05;;
74528;SDS011;63009;52.584;5.932;2023-05-10T14:17:17;15.50;;;7.78;;
74528;SDS011;63009;52.584;5.932;2023-05-10T14:19:42;14.35;;;7.25;;
74528;SDS011;63009;52.584;5.932;2023-05-10T14:22:08;17.15;;;8.07;;
74528;SDS011;63009;52.584;5.932;2023-05-10T14:24:33;15.67;;;7.70;;
74528;SDS011;63009;52.584;5.932;2023-05-10T14:26:58;16.53;;;7.83;;
74528;SDS011;63009;52.584;5.932;2023-05-10T14:29:23;17.90;;;7.87;;
74528;SDS011;63009;52.584;5.932;2023-05-10T14:31:49;16.10;;;7.18;;
74528;SDS011;63009;52.584;5.932;2023-05-10T14:34:15;17.95;;;8.13;;
74528;SDS011;63009;52.584;5.932;2023-05-10T14:36:40;16.77;;;7.30;;
74528;SDS011;63009;52.584;5.932;2023-05-10T14:39:05;13.85;;;6.05;;
74528;SDS011;63009;52.584;5.932;2023-05-10T14:41:31;13.98;;;5.80;;
74528;SDS011;63009;52.584;5.932;2023-05-10T14:43:57;11.70;;;5.43;;
74528;SDS011;63009;52.584;5.932;2023-05-10T14:46:22;13.05;;;6.60;;
74528;SDS011;63009;52.584;5.932;2023-05-10T14:48:47;13.00;;;6.07;;
74528;SDS011;63009;52.584;5.932;2023-05-10T14:51:13;15.47;;;6.97;;
74528;SDS011;63009;52.584;5.932;2023-05-10T14:53:38;14.77;;;6.72;;
74528;SDS011;63009;52.584;5.932;2023-05-10T14:56:03;15.57;;;6.80;;
74528;SDS011;63009;52.584;5.932;2023-05-10T14:58:29;15.60;;;6.80;;
74528;SDS011;63009;52.584;5.932;2023-05-10T15:00:55;12.50;;;5.93;;
74528;SDS011;63009;52.584;5.932;2023-05-10T15:03:21;16.77;;;6.32;;
74528;SDS011;63009;52.584;5.932;2023-05-10T15:05:47;13.15;;;6.35;;
74528;SDS011;63009;52.584;5.932;2023-05-10T15:08:12;14.23;;;7.75;;
74528;SDS011;63009;52.584;5.932;2023-05-10T15:10:38;13.30;;;5.40;;
74528;SDS011;63009;52.584;5.932;2023-05-10T15:13:03;13.52;;;6.22;;